Time;durP1;ratioP1;P1;durP2;ratioP2;P2;SDS_P1;SDS_P2;PMS_P1;PMS_P2;Temp;Humidity;BMP_temperature;BMP_pressure;BME280_temperature;BME280_humidity;BME280_pressure;Samples;Min_cycle;Max_cycle;Signal;HPM_P1;HPM_P2
2022/04/25 00:03:34;;;;;;;7.47;1.93;;;;;;;18.12;57.05;98298.63;4917745;29;20182;-94
2022/04/25 02:17:06;;;;;;;9.00;1.53;;;;;;;16.81;60.63;98288.09;5565862;23;20592;-93
2022/04/25 02:19:51;;;;;;;3.43;2.17;;;;;;;16.76;60.51;98287.69;4978044;28;20192;-93
2022/04/25 02:22:25;;;;;;;4.93;1.77;;;;;;;16.58;61.39;98288.41;4977353;28;20186;-93
2022/04/25 02:25:54;;;;;;;6.93;1.93;;;;;;;16.42;62.36;98282.78;4980664;28;20182;-94
2022/04/25 02:28:39;;;;;;;6.13;2.20;;;;;;;16.27;63.21;98294.69;4997721;28;20188;-94
2022/04/25 03:10:09;;;;;;;7.77;2.07;;;;;;;15.67;63.20;98302.75;4745949;30;20664;-93
2022/04/25 03:12:38;;;;;;;6.50;1.97;;;;;;;15.63;63.17;98298.69;4815840;29;20208;-93
2022/04/25 03:36:02;;;;;;;;;;;;;;;;;;;;;
2022/04/25 03:39:35;;;;;;;4.33;1.80;;;;;;;15.30;62.76;98313.75;4880739;29;20190;-94
2022/04/25 03:42:16;;;;;;;8.37;2.50;;;;;;;15.23;63.19;98322.34;4899635;29;20196;-94
2022/04/25 03:44:52;;;;;;;8.83;1.80;;;;;;;15.21;63.05;98319.00;4902840;29;20191;-95
2022/04/25 03:47:29;;;;;;;8.13;2.67;;;;;;;15.18;63.02;98320.09;4960958;28;20684;-93
2022/04/25 03:50:02;;;;;;;8.40;2.40;;;;;;;15.24;63.44;98319.59;4960495;28;20194;-95
2022/04/25 03:52:42;;;;;;;9.73;2.47;;;;;;;15.38;63.01;98319.22;4976326;28;20201;-94
2022/04/25 03:58:11;;;;;;;5.33;2.83;;;;;;;15.32;63.43;98317.13;4976995;28;20250;-95
2022/04/25 04:00:38;;;;;;;5.17;2.03;;;;;;;15.42;63.21;98321.63;4959838;28;20174;-94
2022/04/25 04:03:06;;;;;;;15.97;2.57;;;;;;;15.46;62.92;98323.88;4976416;28;20556;-93
2022/04/25 04:05:32;;;;;;;7.90;1.40;;;;;;;15.54;62.74;98325.91;4962397;28;20199;-94
2022/04/25 04:07:58;;;;;;;5.57;2.20;;;;;;;15.52;61.91;98330.47;4979421;28;20613;-94
2022/04/25 04:10:28;;;;;;;9.17;2.40;;;;;;;15.58;62.49;98327.31;4979117;28;20180;-94
2022/04/25 04:12:59;;;;;;;5.03;2.20;;;;;;;15.65;62.18;98328.44;4978933;28;20166;-94
2022/04/25 04:15:24;;;;;;;6.80;1.50;;;;;;;15.57;62.94;98329.09;4978879;28;20181;-94
2022/04/25 04:17:50;;;;;;;8.53;2.63;;;;;;;15.66;62.63;98327.50;4978304;28;20220;-94
2022/04/25 04:20:15;;;;;;;6.13;2.07;;;;;;;15.76;62.56;98331.00;4978636;28;20624;-93
2022/04/25 04:22:43;;;;;;;3.97;1.67;;;;;;;15.82;62.27;98333.13;4978799;28;20185;-94
2022/04/25 04:25:14;;;;;;;10.23;2.33;;;;;;;15.87;62.38;98330.91;4978633;28;20177;-93
2022/04/25 04:27:40;;;;;;;7.33;1.37;;;;;;;15.94;62.32;98332.06;4978415;28;20601;-96
2022/04/25 04:30:09;;;;;;;1.80;0.87;;;;;;;16.03;62.11;98333.91;4995636;28;20197;-95
2022/04/25 04:32:38;;;;;;;6.60;2.10;;;;;;;16.11;61.71;98320.84;4978494;28;20174;-96
2022/04/25 04:35:10;;;;;;;7.87;2.10;;;;;;;16.28;61.17;98333.41;4978456;28;20237;-96
2022/04/25 04:37:37;;;;;;;9.37;1.87;;;;;;;16.32;61.04;98326.91;4979209;28;20202;-96
2022/04/25 04:42:49;;;;;;;12.30;4.47;;;;;;;16.81;60.55;98341.03;4996013;28;20177;-96
2022/04/25 04:45:15;;;;;;;12.87;3.20;;;;;;;17.14;59.37;98328.19;4978328;28;20182;-95
2022/04/25 04:47:40;;;;;;;8.33;2.50;;;;;;;17.39;58.66;98337.38;4977419;28;20182;-95
2022/04/25 04:50:14;;;;;;;4.67;1.47;;;;;;;17.57;58.55;98335.69;4978355;28;20651;-94
2022/04/25 04:52:45;;;;;;;5.47;1.97;;;;;;;17.64;58.23;98336.78;4978082;28;20261;-93
2022/04/25 04:55:11;;;;;;;9.67;2.07;;;;;;;17.78;58.32;98331.03;4995041;28;20174;-93
2022/04/25 05:01:12;;;;;;;11.40;2.23;;;;;;;18.28;56.88;98317.38;4870458;28;20329;-91
2022/04/25 05:03:55;;;;;;;7.70;2.47;;;;;;;18.70;56.47;98323.84;4975736;28;20656;-91
2022/04/25 05:06:21;;;;;;;9.63;2.73;;;;;;;19.11;55.56;98302.94;4957987;28;20200;-92
2022/04/25 05:08:52;;;;;;;12.07;3.60;;;;;;;19.28;54.75;98304.75;4987612;28;20644;-91
2022/04/25 05:55:47;;;;;;;9.83;2.00;;;;;;;20.59;53.66;98276.78;5948879;23;20507;-92
2022/04/25 06:01:56;;;;;;;7.20;2.77;;;;;;;20.98;52.21;98277.81;4946845;28;20189;-92
2022/04/25 06:13:55;;;;;;;7.17;2.20;;;;;;;21.81;48.69;98249.84;5168578;23;20250;-93
2022/04/25 07:01:32;;;;;;;9.73;2.67;;;;;;;24.51;41.94;98320.28;5153128;23;20801;-93
2022/04/25 07:18:10;;;;;;;12.40;1.87;;;;;;;24.38;42.30;98326.31;4842882;29;20715;-93
2022/04/25 07:34:08;;;;;;;8.03;2.30;;;;;;;24.78;42.49;98305.34;4808408;29;20228;-93
2022/04/25 07:36:36;;;;;;;5.40;2.17;;;;;;;24.82;41.04;98301.25;4823515;29;20646;-93
2022/04/25 07:39:05;;;;;;;6.47;2.53;;;;;;;24.91;41.30;98298.28;4860319;29;20336;-93
2022/04/25 07:45:16;;;;;;;2.60;1.17;;;;;;;25.53;37.96;98300.28;4956729;29;20271;-94
2022/04/25 07:47:43;;;;;;;4.83;1.70;;;;;;;25.68;38.05;98298.34;4940894;29;20177;-92
2022/04/25 07:50:11;;;;;;;5.30;1.90;;;;;;;25.83;38.40;98301.75;4940801;29;20250;-89
2022/04/25 07:52:37;;;;;;;6.10;1.67;;;;;;;26.03;39.04;98301.84;4972294;28;20208;-92
2022/04/25 07:55:08;;;;;;;8.13;2.03;;;;;;;26.22;39.09;98296.59;4968170;28;20271;-93
2022/04/25 07:57:35;;;;;;;3.63;1.50;;;;;;;26.39;38.24;98296.28;4971352;28;20193;-93
2022/04/25 08:00:04;;;;;;;7.50;1.55;;;;;;;26.10;37.15;98290.09;4954925;28;20622;-92
2022/04/25 08:02:31;;;;;;;6.83;2.43;;;;;;;26.03;37.21;98301.84;4955465;29;20200;-93
2022/04/25 08:04:57;;;;;;;5.43;1.60;;;;;;;26.16;37.62;98297.41;4961096;28;20187;-92
2022/04/25 08:07:24;;;;;;;7.17;1.33;;;;;;;26.32;38.30;98290.00;4949156;28;20188;-92
2022/04/25 08:09:51;;;;;;;4.50;1.60;;;;;;;26.46;38.25;98284.50;4970899;28;20767;-93
2022/04/25 08:18:06;;;;;;;7.70;2.13;;;;;;;27.03;37.15;98270.59;4973398;28;20267;-93
2022/04/25 08:20:36;;;;;;;6.03;2.28;;;;;;;27.13;37.92;98272.84;4969262;28;20179;-94
2022/04/25 08:23:05;;;;;;;10.35;3.83;;;;;;;27.20;38.92;98262.94;4956862;28;20188;-92
2022/04/25 08:25:32;;;;;;;3.30;1.02;;;;;;;27.04;37.61;98264.19;4965617;28;20250;-91
2022/04/25 08:27:59;;;;;;;7.63;2.45;;;;;;;27.29;38.24;98261.69;4958076;28;20638;-92
2022/04/25 08:30:28;;;;;;;9.23;3.13;;;;;;;27.42;37.15;98259.84;4958849;28;20594;-93
2022/04/25 08:32:57;;;;;;;7.47;2.03;;;;;;;27.55;38.99;98267.06;4973047;28;20224;-93
2022/04/25 08:35:24;;;;;;;4.05;1.60;;;;;;;27.76;37.53;98257.91;4958758;28;20180;-93
2022/04/25 08:37:57;;;;;;;5.07;1.60;;;;;;;27.74;38.12;98260.84;4976479;28;20212;-95
2022/04/25 08:40:23;;;;;;;6.63;1.50;;;;;;;27.93;37.43;98264.53;4975914;28;20627;-94
2022/04/25 08:42:53;;;;;;;3.60;0.90;;;;;;;27.71;37.00;98263.09;4958684;28;20176;-95
2022/04/25 08:45:21;;;;;;;7.60;1.75;;;;;;;27.70;35.72;98253.41;4958875;28;20268;-93
2022/04/25 08:47:53;;;;;;;2.60;0.93;;;;;;;28.01;36.89;98253.50;4958806;28;20246;-94
2022/04/25 08:50:24;;;;;;;9.82;2.30;;;;;;;28.19;36.06;98260.94;4967841;28;20249;-93
2022/04/25 08:52:54;;;;;;;11.65;3.00;;;;;;;28.36;36.28;98254.81;4978091;28;20168;-95
2022/04/25 08:55:22;;;;;;;4.43;0.90;;;;;;;28.47;34.97;98254.16;4978053;28;20194;-94
2022/04/25 08:57:51;;;;;;;6.97;1.98;;;;;;;28.49;35.74;98237.75;4982798;28;20316;-94
2022/04/25 09:00:18;;;;;;;5.57;2.08;;;;;;;28.59;34.00;98238.09;4971879;28;20310;-94
2022/04/25 09:02:49;;;;;;;8.23;1.27;;;;;;;28.77;34.87;98234.72;4992275;28;20208;-94
2022/04/25 09:05:19;;;;;;;9.82;1.77;;;;;;;28.82;36.05;98232.19;4972913;28;20286;-93
2022/04/25 09:07:45;;;;;;;10.70;2.17;;;;;;;29.04;35.06;98226.19;4974304;28;20656;-93
2022/04/25 09:10:14;;;;;;;3.08;1.52;;;;;;;29.06;35.09;98221.41;4974245;28;20223;-95
2022/04/25 09:12:44;;;;;;;9.57;1.60;;;;;;;28.86;34.58;98225.31;4974757;28;20176;-94
2022/04/25 09:15:11;;;;;;;5.63;1.70;;;;;;;29.07;34.54;98225.75;4971737;28;20267;-93
2022/04/25 09:17:38;;;;;;;10.38;1.80;;;;;;;29.14;33.80;98215.72;4973538;28;20239;-94
2022/04/25 09:20:09;;;;;;;2.63;1.35;;;;;;;29.11;32.66;98218.06;4973502;28;20247;-94
2022/04/25 09:22:39;;;;;;;9.60;1.98;;;;;;;29.10;33.35;98213.69;4982725;28;20549;-94
2022/04/25 09:25:15;;;;;;;9.00;2.08;;;;;;;29.35;33.82;98211.03;4974184;28;20196;-93
2022/04/25 09:27:42;;;;;;;6.05;1.73;;;;;;;29.50;33.44;98211.50;4971193;28;20529;-91
2022/04/25 09:30:16;;;;;;;6.07;2.33;;;;;;;29.43;35.24;98198.03;4970494;28;20204;-93
2022/04/25 09:32:42;;;;;;;6.63;1.67;;;;;;;29.66;33.66;98192.84;4955344;28;20158;-92
2022/04/25 09:35:39;;;;;;;5.25;1.33;;;;;;;29.82;33.27;98192.25;4955519;28;20177;-92
2022/04/25 09:38:08;;;;;;;3.63;1.13;;;;;;;30.00;32.29;98188.72;4974617;28;20188;-93
2022/04/25 09:40:36;;;;;;;5.85;0.85;;;;;;;30.12;32.52;98180.66;4973457;28;20172;-93
2022/04/25 09:43:14;;;;;;;4.28;1.27;;;;;;;30.19;33.24;98176.00;4974432;28;20192;-91
2022/04/25 09:45:42;;;;;;;2.83;1.05;;;;;;;30.34;33.13;98173.72;4974157;28;20234;-93
2022/04/25 09:48:18;;;;;;;6.55;1.65;;;;;;;30.46;33.08;98171.88;4973241;28;20203;-92
2022/04/25 09:50:59;;;;;;;4.30;1.55;;;;;;;30.66;31.69;98161.59;4972796;28;20188;-92
2022/04/25 09:53:42;;;;;;;9.90;1.90;;;;;;;30.70;32.33;98168.19;4972669;28;20514;-93
2022/04/25 09:56:13;;;;;;;9.10;1.50;;;;;;;30.67;32.48;98162.41;4971426;28;20205;-92
2022/04/25 09:58:40;;;;;;;4.90;1.98;;;;;;;30.88;32.43;98164.56;4968987;28;20214;-91
2022/04/25 10:01:13;;;;;;;9.15;2.28;;;;;;;30.89;31.74;98169.75;4973000;28;20232;-92
2022/04/25 10:03:42;;;;;;;10.85;2.08;;;;;;;30.57;30.35;98165.69;4974097;28;20176;-94
2022/04/25 10:06:09;;;;;;;6.63;2.05;;;;;;;30.17;32.71;98164.56;4970122;28;20181;-93
2022/04/25 10:08:35;;;;;;;4.38;2.00;;;;;;;30.46;32.89;98169.19;4969515;28;20691;-92
2022/04/25 10:11:03;;;;;;;7.40;2.10;;;;;;;30.62;30.62;98162.28;4973135;28;20275;-94
2022/04/25 10:13:31;;;;;;;12.70;2.70;;;;;;;30.86;30.57;98163.97;4957518;28;20188;-92
2022/04/25 10:16:23;;;;;;;6.22;1.38;;;;;;;30.89;30.83;98164.34;4954613;28;20204;-94
2022/04/25 10:18:53;;;;;;;5.05;1.65;;;;;;;31.11;30.28;98159.19;4954661;28;20204;-95
2022/04/25 10:21:19;;;;;;;8.02;2.22;;;;;;;31.35;30.53;98160.84;4970910;28;20213;-92
2022/04/25 10:23:45;;;;;;;9.68;2.28;;;;;;;31.48;29.85;98151.69;4970496;28;20633;-91
2022/04/25 10:26:25;;;;;;;9.38;2.00;;;;;;;31.54;30.30;98154.28;4955076;28;20209;-92
2022/04/25 10:29:08;;;;;;;3.85;1.48;;;;;;;31.63;29.72;98149.28;4970489;28;20527;-94
2022/04/25 10:35:38;;;;;;;;;;;;;;;;;;;;;
2022/04/25 10:45:15;;;;;;;4.47;1.10;;;;;;;32.40;28.24;98126.16;4898373;29;20673;-92
2022/04/25 10:48:31;;;;;;;;;;;;;;;;;;;;;
2022/04/25 10:51:49;;;;;;;6.88;1.40;;;;;;;32.26;28.51;98119.41;4959603;29;20196;-91
2022/04/25 10:54:25;;;;;;;;;;;;;;;;;;;;;
2022/04/25 10:57:14;;;;;;;5.85;1.25;;;;;;;32.48;29.06;98117.63;4958728;28;20236;-91
2022/04/25 11:04:35;;;;;;;6.45;1.05;;;;;;;32.71;28.20;98105.81;4911211;29;20213;-92
2022/04/25 11:10:45;;;;;;;3.80;1.50;;;;;;;32.55;28.15;98095.78;4936957;29;20193;-90
2022/04/25 11:13:13;;;;;;;13.63;2.63;;;;;;;32.57;28.21;98097.22;4920588;29;20281;-90
2022/04/25 11:19:16;;;;;;;5.47;1.35;;;;;;;33.11;28.42;98095.63;4920538;29;20691;-89
2022/04/25 11:21:49;;;;;;;10.25;1.52;;;;;;;33.40;27.88;98090.88;4962916;28;20178;-90
2022/04/25 11:29:00;;;;;;;;;;;;;;;;;;;;;
2022/04/25 11:31:50;;;;;;;2.65;1.10;;;;;;;33.96;27.63;98082.31;4837585;29;20204;-90
2022/04/25 11:34:21;;;;;;;6.30;1.77;;;;;;;34.03;27.42;98079.41;4879851;29;20656;-90
2022/04/25 11:37:10;;;;;;;7.18;1.42;;;;;;;33.98;25.85;98080.19;4884220;29;20219;-93
2022/04/25 11:42:31;;;;;;;5.05;1.85;;;;;;;33.46;26.17;98079.00;4892531;29;20282;-92
2022/04/25 11:45:01;;;;;;;5.93;2.13;;;;;;;32.82;27.04;98080.50;4890310;29;20203;-93
2022/04/25 11:47:50;;;;;;;5.85;1.30;;;;;;;32.66;28.95;98073.19;4866575;29;20274;-92
2022/04/25 11:50:48;;;;;;;6.38;1.23;;;;;;;32.71;29.08;98073.25;4879909;29;20195;-92
2022/04/25 11:57:05;;;;;;;5.05;1.50;;;;;;;33.25;27.52;98058.91;4849233;29;20209;-92
2022/04/25 12:00:17;;;;;;;4.70;1.27;;;;;;;33.40;27.76;98060.97;4829924;29;20527;-92
2022/04/25 12:02:53;;;;;;;4.75;1.10;;;;;;;33.26;27.05;98060.53;4869074;29;20239;-91
2022/04/25 12:15:40;;;;;;;5.13;1.13;;;;;;;33.16;28.19;98041.38;4859033;29;20204;-91
2022/04/25 12:19:03;;;;;;;11.68;2.00;;;;;;;33.21;28.09;98041.44;4840241;29;20205;-92
2022/04/25 12:22:04;;;;;;;4.25;1.15;;;;;;;32.79;28.81;98032.94;4868898;29;20260;-93
2022/04/25 12:24:32;;;;;;;7.97;1.92;;;;;;;32.82;28.19;98037.06;4860031;29;20705;-93
2022/04/25 12:27:11;;;;;;;6.50;1.40;;;;;;;33.10;28.85;98028.78;4875477;29;20179;-92
2022/04/25 12:30:06;;;;;;;8.95;1.67;;;;;;;33.31;26.86;98025.28;4910826;29;20287;-93
2022/04/25 12:33:35;;;;;;;;;;;;;;;;;;;;;
2022/04/25 12:44:01;;;;;;;7.55;1.77;;;;;;;34.16;26.73;98011.03;4717364;30;20255;-93
2022/04/25 12:47:11;;;;;;;4.78;1.08;;;;;;;34.23;26.62;98019.78;4725591;30;20337;-92
2022/04/25 12:52:51;;;;;;;6.50;1.85;;;;;;;33.85;26.81;98014.50;4759168;29;20194;-92
2022/04/25 12:55:26;;;;;;;6.90;1.20;;;;;;;33.77;27.39;98023.13;4884389;29;20191;-93
2022/04/25 12:57:51;;;;;;;7.45;2.20;;;;;;;33.22;27.04;98015.09;4934895;29;20231;-92
2022/04/25 13:00:17;;;;;;;5.45;1.67;;;;;;;33.54;27.23;98004.34;4936777;29;20186;-91
2022/04/25 13:03:04;;;;;;;7.20;1.95;;;;;;;33.59;28.64;97999.00;4938454;29;20200;-93
2022/04/25 13:05:38;;;;;;;5.90;1.42;;;;;;;33.44;29.49;98012.41;4938763;29;20665;-90
2022/04/25 13:08:08;;;;;;;5.93;1.20;;;;;;;33.09;29.32;98001.91;4955543;28;20165;-91
2022/04/25 13:10:33;;;;;;;10.38;2.00;;;;;;;32.93;30.03;98002.75;4963369;28;20203;-91
2022/04/25 13:12:59;;;;;;;5.47;1.98;;;;;;;32.74;30.07;98002.19;4975425;28;20161;-92
2022/04/25 13:15:26;;;;;;;16.58;3.53;;;;;;;32.62;30.75;98010.47;4974987;28;20613;-91
2022/04/25 13:17:54;;;;;;;10.07;2.88;;;;;;;32.43;30.24;98006.31;4958160;28;20363;-92
2022/04/25 13:20:21;;;;;;;7.75;1.88;;;;;;;32.15;31.59;98009.91;4958252;28;20180;-91
2022/04/25 13:22:51;;;;;;;12.63;2.38;;;;;;;32.49;30.91;98002.63;4974911;28;20184;-91
2022/04/25 13:25:22;;;;;;;8.25;1.85;;;;;;;32.07;30.77;98004.94;4958090;28;20623;-91
2022/04/25 13:27:48;;;;;;;5.25;1.98;;;;;;;32.39;31.42;97996.22;4975343;28;20521;-91
2022/04/25 13:30:26;;;;;;;;;;;;;;;;;;;;;
2022/04/25 13:32:53;;;;;;;7.40;1.17;;;;;;;33.10;29.75;98001.63;4979068;28;20184;-91
2022/04/25 13:35:24;;;;;;;7.63;1.70;;;;;;;32.79;29.89;97999.56;4974038;28;20210;-92
2022/04/25 13:37:58;;;;;;;9.20;2.00;;;;;;;32.43;30.53;98000.91;4973463;28;20295;-91
2022/04/25 13:40:24;;;;;;;5.53;1.38;;;;;;;32.52;30.45;98001.31;4957445;28;20171;-91
2022/04/25 13:42:51;;;;;;;5.55;1.48;;;;;;;32.44;30.73;98001.72;4974501;28;20180;-90
2022/04/25 13:45:39;;;;;;;7.97;1.27;;;;;;;32.40;30.67;98005.97;4974715;28;20238;-92
2022/04/25 13:48:05;;;;;;;5.88;2.10;;;;;;;32.32;30.51;98006.41;4957535;28;20227;-90
2022/04/25 13:50:31;;;;;;;7.53;2.22;;;;;;;31.97;31.20;97999.28;4974559;28;20561;-92
2022/04/25 13:52:56;;;;;;;16.10;1.67;;;;;;;32.45;30.92;98004.19;4955713;28;20188;-92
2022/04/25 13:55:42;;;;;;;12.93;2.33;;;;;;;32.71;30.24;97997.25;4957468;28;20195;-91
2022/04/25 13:58:17;;;;;;;6.95;2.08;;;;;;;32.77;29.63;97996.28;4975348;28;20239;-92
2022/04/25 14:00:55;;;;;;;;;;;;;;;;;;;;;
2022/04/25 14:03:41;;;;;;;5.53;1.85;;;;;;;32.97;29.53;97991.13;4974908;28;20180;-92
2022/04/25 14:09:38;;;;;;;14.25;1.88;;;;;;;33.08;29.92;97992.94;4971351;28;20184;-92
2022/04/25 14:12:54;;;;;;;;;;;;;;;;;;;;;
2022/04/25 14:15:26;;;;;;;8.43;2.40;;;;;;;32.70;30.19;97996.47;4970419;28;20200;-92
2022/04/25 14:17:54;;;;;;;3.30;1.27;;;;;;;32.91;29.75;97991.31;4974354;28;20618;-92
2022/04/25 14:20:22;;;;;;;5.53;1.52;;;;;;;32.78;29.79;97998.72;4977190;28;20191;-92
2022/04/25 14:22:48;;;;;;;8.32;1.60;;;;;;;32.60;29.58;97990.06;4961295;28;20192;-92
2022/04/25 14:25:24;;;;;;;12.65;1.70;;;;;;;32.48;29.72;98000.16;4961396;28;20193;-92
2022/04/25 14:28:57;;;;;;;;;;;;;;;;;;;;;
2022/04/25 14:31:23;;;;;;;4.25;1.30;;;;;;;32.90;29.56;97985.06;4941973;28;20199;-92
2022/04/25 14:33:48;;;;;;;6.93;2.42;;;;;;;32.29;29.94;97991.44;4978024;28;20173;-91
2022/04/25 14:36:21;;;;;;;5.20;1.55;;;;;;;32.36;30.26;97991.28;4977852;28;20715;-91
2022/04/25 14:39:13;;;;;;;6.50;1.30;;;;;;;32.53;30.48;97992.13;4960332;28;20228;-93
2022/04/25 14:41:41;;;;;;;4.88;2.05;;;;;;;32.61;29.95;97981.66;4960860;28;20176;-91
2022/04/25 14:44:07;;;;;;;11.95;2.13;;;;;;;32.46;31.01;97981.41;4978032;28;20642;-92
2022/04/25 14:46:41;;;;;;;8.60;1.77;;;;;;;32.53;31.33;97992.13;4977758;28;20196;-92
2022/04/25 14:54:20;;;;;;;9.80;1.65;;;;;;;32.37;30.94;97991.03;4960778;28;20178;-92
2022/04/25 14:54:54;;;;;;;8.00;1.90;;;;;;;32.50;30.22;97992.56;4977701;28;20192;-91
2022/04/25 14:57:23;;;;;;;7.88;1.67;;;;;;;32.36;30.98;97988.56;4960244;28;20189;-92
2022/04/25 14:59:51;;;;;;;7.50;2.10;;;;;;;32.05;31.56;97993.47;4960472;28;20211;-90
2022/04/25 15:02:16;;;;;;;10.80;1.90;;;;;;;31.98;31.97;97990.09;4960692;28;20172;-91
2022/04/25 15:04:42;;;;;;;6.85;3.63;;;;;;;32.02;31.62;97983.13;4959264;28;20183;-90
2022/04/25 15:07:07;;;;;;;9.40;2.17;;;;;;;32.00;31.52;97987.97;4977840;28;20293;-92
2022/04/25 15:09:39;;;;;;;8.93;2.65;;;;;;;31.85;31.59;97981.44;4977293;28;20247;-92
2022/04/25 15:12:05;;;;;;;5.35;1.25;;;;;;;31.87;31.78;97985.53;4960207;28;20196;-91
2022/04/25 15:14:31;;;;;;;11.35;2.10;;;;;;;31.88;30.70;97979.06;4960276;28;20211;-90
2022/04/25 15:16:57;;;;;;;6.47;1.67;;;;;;;31.66;32.34;97978.13;4977135;28;20224;-90
2022/04/25 15:19:22;;;;;;;9.75;2.10;;;;;;;31.75;32.28;97981.25;4977081;28;20192;-90
2022/04/25 15:21:58;;;;;;;;;;;;;;;;;;;;;
2022/04/25 15:24:27;;;;;;;12.90;2.45;;;;;;;31.73;32.21;97975.25;4977915;28;20152;-91
2022/04/25 15:26:54;;;;;;;3.78;1.88;;;;;;;31.77;32.32;97979.94;4976928;28;20187;-92
2022/04/25 15:29:20;;;;;;;9.63;2.50;;;;;;;31.51;32.22;97977.84;4959766;28;20184;-92
2022/04/25 15:32:03;;;;;;;9.95;1.95;;;;;;;31.44;32.19;97982.56;4959285;28;20532;-91
2022/04/25 15:34:34;;;;;;;4.78;1.60;;;;;;;31.41;32.29;97969.47;4959887;28;20541;-90
2022/04/25 15:37:00;;;;;;;9.27;2.28;;;;;;;31.49;32.78;97977.25;4976788;28;20184;-90
2022/04/25 15:39:25;;;;;;;12.00;2.05;;;;;;;31.40;33.05;97973.25;4959742;28;20184;-91
2022/04/25 15:42:05;;;;;;;7.22;1.75;;;;;;;31.31;32.81;97980.13;4959736;28;20179;-92
2022/04/25 15:44:30;;;;;;;8.18;1.80;;;;;;;31.29;32.86;97976.84;4959348;28;20180;-91
2022/04/25 15:46:56;;;;;;;8.13;1.40;;;;;;;31.33;33.13;97988.81;4959631;28;20191;-91
2022/04/25 15:49:21;;;;;;;7.03;2.10;;;;;;;31.47;33.36;97985.63;4959582;28;20176;-90
2022/04/25 15:51:47;;;;;;;7.72;2.33;;;;;;;31.47;33.04;97985.63;4976534;28;20200;-90
2022/04/25 15:59:40;;;;;;;6.80;2.42;;;;;;;31.16;33.10;97993.38;4977192;28;20168;-91
2022/04/25 16:02:06;;;;;;;8.95;1.85;;;;;;;31.02;33.40;98007.16;4976173;28;20235;-90
2022/04/25 16:04:34;;;;;;;11.18;1.92;;;;;;;31.08;33.70;97999.16;4976317;28;20259;-90
2022/04/25 16:06:59;;;;;;;12.57;2.38;;;;;;;30.97;33.91;97995.41;4959487;28;20180;-90
2022/04/25 16:09:30;;;;;;;6.82;2.22;;;;;;;30.98;33.67;98003.28;4976133;28;20176;-89
2022/04/25 16:11:56;;;;;;;13.23;3.03;;;;;;;31.03;33.39;98008.78;4976935;28;20237;-90
2022/04/25 16:14:21;;;;;;;4.80;1.70;;;;;;;30.87;33.58;98001.38;4959173;28;20212;-89
2022/04/25 16:16:49;;;;;;;3.90;1.52;;;;;;;30.89;34.12;98001.97;4976610;28;20611;-91
2022/04/25 16:19:18;;;;;;;6.97;2.17;;;;;;;30.79;34.15;98006.34;4975147;28;20235;-90
2022/04/25 16:21:46;;;;;;;7.95;2.45;;;;;;;30.75;34.53;98003.28;4975952;28;20196;-91
2022/04/25 16:24:11;;;;;;;8.75;3.58;;;;;;;30.79;34.73;97998.22;4965766;28;20185;-91
2022/04/25 16:26:42;;;;;;;7.57;1.90;;;;;;;30.65;34.96;97997.63;4939725;29;20276;-91
2022/04/25 16:29:11;;;;;;;6.07;1.48;;;;;;;30.70;34.91;97999.63;4957089;29;20193;-90
2022/04/25 16:31:48;;;;;;;8.95;2.10;;;;;;;30.75;35.06;97997.84;4958463;28;20177;-90
2022/04/25 16:34:17;;;;;;;3.83;1.48;;;;;;;30.74;35.25;97995.41;4920363;29;20204;-91
2022/04/25 16:36:46;;;;;;;8.30;2.10;;;;;;;30.63;35.56;98002.47;4920383;29;20216;-92
2022/04/25 16:39:12;;;;;;;5.90;2.08;;;;;;;30.57;35.75;98000.69;4920389;29;20527;-90
2022/04/25 16:41:41;;;;;;;8.60;2.20;;;;;;;30.45;36.19;98010.69;4937209;29;20177;-91
2022/04/25 16:44:07;;;;;;;9.73;2.28;;;;;;;30.32;36.69;98016.28;4919758;29;20634;-90
2022/04/25 16:46:37;;;;;;;11.30;2.20;;;;;;;30.20;37.10;98020.84;4936936;29;20192;-92
2022/04/25 16:49:03;;;;;;;5.53;1.88;;;;;;;30.12;37.61;98032.81;4920595;29;20264;-90
2022/04/25 16:51:30;;;;;;;7.88;1.95;;;;;;;29.94;37.00;98035.59;4937497;29;20606;-91
2022/04/25 16:53:56;;;;;;;12.25;2.72;;;;;;;29.76;35.81;98041.84;4936932;29;20174;-91
2022/04/25 16:56:33;;;;;;;7.40;1.95;;;;;;;29.60;35.46;98047.88;4937148;29;20194;-92
2022/04/25 16:59:34;;;;;;;8.80;1.33;;;;;;;28.89;33.37;98044.13;4937279;29;20526;-93
2022/04/25 17:03:05;;;;;;;;;;;;;;;;;;;;;
2022/04/25 17:05:58;;;;;;;6.90;1.63;;;;;;;28.50;34.19;98050.69;4937432;29;20149;-93
2022/04/25 17:08:25;;;;;;;8.27;2.40;;;;;;;28.48;34.36;98050.09;4933626;29;20220;-92
2022/04/25 17:11:00;;;;;;;11.00;1.65;;;;;;;28.48;34.54;98056.31;4935213;29;20209;-91
2022/04/25 17:13:39;;;;;;;;;;;;;;;;;;;;;
